Terminal Aerodrome Forecast
Issued by NWS Cleveland, OH

Home | Current Version | Previous Version | Graphics & Text | Print | Product List | Glossary On
Versions: 1 2 3 4 5 6 7 8 9 10 11 12 13 14 15 16 17 18 19 20
000
FTUS41 KCLE 222300
TAFYNG
TAF
KYNG 222337Z 2300/2324 10010KT P6SM BKN040 OVC150
     FM230700 13012KT 4SM BR VCSH SCT025 OVC035
     FM230900 14012KT 4SM BR VCSH SCT015 OVC025
      TEMPO 2310/2314 2SM -SHRA BR BKN008 OVC012
     FM231400 15010G18KT 2SM -SHRA BR OVC006=

USA.gov is the U.S. government's official web portal to all federal, state and local government web resources and services.